createdAt,value
2022-09-13T00:01:27.759Z,97748.97
2022-09-13T00:03:56.401Z,97736.16
2022-09-13T00:06:27.553Z,97741.63
2022-09-13T00:08:56.721Z,97734.41
2022-09-13T00:11:29.087Z,97726.00
2022-09-13T00:13:58.703Z,97726.91
2022-09-13T00:16:31.026Z,97718.72
2022-09-13T00:19:01.548Z,97712.22
2022-09-13T00:21:31.460Z,97716.09
2022-09-13T00:23:59.973Z,97713.47
2022-09-13T00:26:30.312Z,97731.44
2022-09-13T00:29:00.494Z,97728.13
2022-09-13T00:31:30.231Z,97726.47
2022-09-13T00:34:02.000Z,97729.09
2022-09-13T00:36:33.052Z,97716.16
2022-09-13T00:39:02.387Z,97709.66
2022-09-13T00:41:31.307Z,97713.47
2022-09-13T00:44:02.331Z,97714.28
2022-09-13T00:46:39.974Z,97717.56
2022-09-13T00:49:18.920Z,97709.50
2022-09-13T00:51:56.864Z,97707.56
2022-09-13T00:54:33.878Z,97712.00
2022-09-13T00:57:07.447Z,97720.34
2022-09-13T00:59:42.949Z,97729.25
2022-09-13T01:02:12.791Z,97732.16
2022-09-13T01:04:42.039Z,97736.84
2022-09-13T01:07:16.487Z,97743.13
2022-09-13T01:09:50.659Z,97744.75
2022-09-13T01:12:32.106Z,97753.22
2022-09-13T01:15:05.451Z,97755.31
2022-09-13T01:17:36.348Z,97746.44
2022-09-13T01:20:09.930Z,97744.88
2022-09-13T01:23:40.461Z,97749.44
2022-09-13T01:27:04.226Z,97740.56
2022-09-13T01:30:12.776Z,97741.38
2022-09-13T01:33:24.839Z,97746.47
2022-09-13T01:36:11.701Z,97748.53
2022-09-13T01:42:23.365Z,97730.88
2022-09-13T01:45:13.904Z,97728.59
2022-09-13T01:47:53.749Z,97735.47
2022-09-13T01:50:36.312Z,97740.56
2022-09-13T01:53:20.093Z,97736.94
2022-09-13T01:55:57.729Z,97733.28
2022-09-13T01:58:35.058Z,97730.22
2022-09-13T02:01:15.433Z,97723.91
2022-09-13T02:03:57.329Z,97728.75
2022-09-13T02:06:34.930Z,97730.16
2022-09-13T02:09:11.403Z,97721.09
2022-09-13T02:11:46.523Z,97724.34
2022-09-13T02:14:22.452Z,97727.00
2022-09-13T02:17:04.249Z,97720.34
2022-09-13T02:19:42.834Z,97726.41
2022-09-13T02:22:20.155Z,97724.16
2022-09-13T02:24:56.599Z,97723.16
2022-09-13T02:27:33.468Z,97729.63
2022-09-13T02:30:09.694Z,97725.97
2022-09-13T02:32:44.456Z,97723.16
2022-09-13T02:35:22.744Z,97728.59
2022-09-13T02:38:02.321Z,97729.25
2022-09-13T02:40:40.235Z,97733.13
2022-09-13T02:43:16.170Z,97721.59
2022-09-13T02:45:54.413Z,97719.09
2022-09-13T02:48:37.448Z,97713.09
2022-09-13T02:51:19.569Z,97713.72
2022-09-13T02:54:00.730Z,97709.03
2022-09-13T02:56:42.995Z,97702.75
2022-09-13T02:59:19.026Z,97692.06
2022-09-13T03:01:54.113Z,97692.06
2022-09-13T03:04:22.805Z,97690.47
2022-09-13T03:06:53.329Z,97684.41
2022-09-13T03:09:23.357Z,97678.41
2022-09-13T03:12:20.092Z,97674.38
2022-09-13T03:14:57.943Z,97662.19
2022-09-13T03:17:58.391Z,97658.94
2022-09-13T03:20:41.730Z,97661.19
2022-09-13T03:23:37.202Z,97665.41
2022-09-13T03:26:25.792Z,97664.59
2022-09-13T03:29:12.299Z,97671.91
2022-09-13T03:31:54.062Z,97666.66
2022-09-13T03:34:36.906Z,97664.59
2022-09-13T03:37:15.316Z,97658.31
2022-09-13T03:39:57.454Z,97656.13
2022-09-13T03:42:34.032Z,97659.56
2022-09-13T03:45:06.090Z,97658.19
2022-09-13T03:47:38.729Z,97661.59
2022-09-13T03:50:10.717Z,97665.63
2022-09-13T03:52:42.252Z,97652.56
2022-09-13T03:55:15.921Z,97657.59
2022-09-13T03:57:45.356Z,97659.63
2022-09-13T04:00:18.917Z,97665.28
2022-09-13T04:02:48.134Z,97670.59
2022-09-13T04:05:17.933Z,97655.97
2022-09-13T04:07:47.665Z,97647.69
2022-09-13T04:10:18.422Z,97660.22
2022-09-13T04:12:47.008Z,97662.47
2022-09-13T04:15:16.264Z,97656.56
2022-09-13T04:17:45.308Z,97657.97
2022-09-13T04:20:13.878Z,97667.22
2022-09-13T04:22:42.869Z,97663.38
2022-09-13T04:25:11.670Z,97665.78
2022-09-13T04:27:41.548Z,97661.13
2022-09-13T04:30:15.444Z,97651.63
2022-09-13T04:32:45.790Z,97640.66
2022-09-13T04:35:19.685Z,97636.78
2022-09-13T04:37:48.271Z,97647.09
2022-09-13T04:40:17.186Z,97656.59
2022-09-13T04:42:47.441Z,97668.94
2022-09-13T04:45:16.089Z,97673.38
2022-09-13T04:47:45.334Z,97679.88
2022-09-13T04:50:14.770Z,97684.34
2022-09-13T04:52:43.405Z,97680.47
2022-09-13T04:55:12.013Z,97682.09
2022-09-13T04:57:40.693Z,97679.22
2022-09-13T05:00:12.735Z,97681.84
2022-09-13T05:02:41.265Z,97670.31
2022-09-13T05:05:11.876Z,97682.00
2022-09-13T05:07:40.895Z,97681.00
2022-09-13T05:10:15.191Z,97688.88
2022-09-13T05:12:47.525Z,97683.38
2022-09-13T05:15:18.095Z,97685.81
2022-09-13T05:17:47.127Z,97685.38
2022-09-13T05:20:16.137Z,97677.25
2022-09-13T05:22:53.787Z,97682.50
2022-09-13T05:25:45.164Z,97680.69
2022-09-13T05:28:20.721Z,97680.25
2022-09-13T05:30:59.054Z,97668.72
2022-09-13T05:33:30.449Z,97669.31
2022-09-13T05:35:59.851Z,97683.63
2022-09-13T05:38:28.921Z,97693.38
2022-09-13T05:40:59.310Z,97702.28
2022-09-13T05:43:31.530Z,97687.31
2022-09-13T05:46:07.714Z,97682.19
2022-09-13T05:48:38.329Z,97680.16
2022-09-13T05:51:09.091Z,97679.09
2022-09-13T05:53:39.868Z,97682.78
2022-09-13T05:56:14.529Z,97678.28
2022-09-13T05:58:49.503Z,97684.72
2022-09-13T06:01:22.495Z,97690.78
2022-09-13T06:03:52.471Z,97698.69
2022-09-13T06:06:22.064Z,97698.03
2022-09-13T06:08:54.717Z,97705.13
2022-09-13T06:11:24.446Z,97705.94
2022-09-13T06:13:54.029Z,97697.22
2022-09-13T06:16:24.361Z,97703.66
2022-09-13T06:18:53.423Z,97700.81
2022-09-13T06:21:28.757Z,97691.06
2022-09-13T06:23:58.445Z,97686.63
2022-09-13T06:26:29.887Z,97691.69
2022-09-13T06:28:59.486Z,97696.50
2022-09-13T06:31:30.169Z,97707.59
2022-09-13T06:34:02.524Z,97704.75
2022-09-13T06:36:32.736Z,97714.84
2022-09-13T06:39:02.538Z,97717.84
2022-09-13T06:41:31.644Z,97713.13
2022-09-13T06:44:02.231Z,97712.34
2022-09-13T06:46:35.587Z,97713.94
2022-09-13T06:49:08.068Z,97703.22
2022-09-13T06:51:38.429Z,97695.66
2022-09-13T06:54:07.078Z,97690.75
2022-09-13T06:56:39.059Z,97671.44
2022-09-13T06:59:09.842Z,97666.31
2022-09-13T07:01:43.793Z,97654.28
2022-09-13T07:04:14.865Z,97645.94
2022-09-13T07:06:47.782Z,97648.72
2022-09-13T07:09:18.614Z,97651.69
2022-09-13T07:11:48.241Z,97651.25
2022-09-13T07:14:19.505Z,97648.97
2022-09-13T07:16:51.795Z,97647.69
2022-09-13T07:19:23.934Z,97640.16
2022-09-13T07:21:52.559Z,97653.44
2022-09-13T07:24:22.593Z,97655.19
2022-09-13T07:26:52.069Z,97642.94
2022-09-13T07:29:24.255Z,97639.59
2022-09-13T07:31:58.817Z,97641.38
2022-09-13T07:34:29.200Z,97638.84
2022-09-13T07:36:57.709Z,97640.22
2022-09-13T07:39:26.891Z,97649.88
2022-09-13T07:41:55.408Z,97652.38
2022-09-13T07:44:24.032Z,97665.44
2022-09-13T07:46:54.435Z,97670.59
2022-09-13T07:49:24.322Z,97672.56
2022-09-13T07:51:53.437Z,97677.13
2022-09-13T07:54:22.504Z,97677.59
2022-09-13T07:56:51.931Z,97682.97
2022-09-13T07:59:21.135Z,97685.28
2022-09-13T08:01:53.491Z,97683.31
2022-09-13T08:04:26.853Z,97689.06
2022-09-13T08:06:55.964Z,97685.47
2022-09-13T08:09:25.255Z,97683.50
2022-09-13T08:11:54.581Z,97685.09
2022-09-13T08:14:24.625Z,97685.91
2022-09-13T08:16:57.462Z,97683.13
2022-09-13T08:19:27.453Z,97680.41
2022-09-13T08:21:56.355Z,97681.06
2022-09-13T08:24:25.060Z,97682.53
2022-09-13T08:26:57.643Z,97676.06
2022-09-13T08:29:26.537Z,97669.63
2022-09-13T08:31:56.448Z,97666.59
2022-09-13T08:34:24.886Z,97672.28
2022-09-13T08:36:53.417Z,97666.84
2022-09-13T08:39:22.747Z,97675.22
2022-09-13T08:42:22.230Z,97660.81
2022-09-13T08:44:55.164Z,97654.06
2022-09-13T08:47:39.474Z,97660.00
2022-09-13T08:50:18.460Z,97663.28
2022-09-13T08:53:08.690Z,97684.09
2022-09-13T08:55:51.455Z,97687.94
2022-09-13T08:58:54.869Z,97680.38
2022-09-13T09:01:46.002Z,97677.09
2022-09-13T09:04:35.717Z,97677.47
2022-09-13T09:07:13.888Z,97674.09
2022-09-13T09:09:50.980Z,97686.63
2022-09-13T09:12:35.486Z,97685.63
2022-09-13T09:15:16.777Z,97685.47
2022-09-13T09:17:54.608Z,97681.84
2022-09-13T09:20:32.845Z,97688.78
2022-09-13T09:23:08.227Z,97681.72
2022-09-13T09:25:37.041Z,97678.34
2022-09-13T09:28:14.917Z,97678.41
2022-09-13T09:30:57.711Z,97680.09
2022-09-13T09:34:01.890Z,97690.50
2022-09-13T09:36:41.104Z,97691.91
2022-09-13T09:39:16.240Z,97693.59
2022-09-13T09:41:47.099Z,97695.25
2022-09-13T09:44:21.109Z,97700.59
2022-09-13T09:46:56.710Z,97701.97
2022-09-13T09:49:54.799Z,97712.63
2022-09-13T09:52:32.210Z,97713.19
2022-09-13T09:55:15.599Z,97714.53
2022-09-13T09:57:58.193Z,97717.47
2022-09-13T10:00:31.343Z,97717.22
2022-09-13T10:03:04.999Z,97710.88
2022-09-13T10:05:35.748Z,97716.75
2022-09-13T10:08:09.826Z,97714.09
2022-09-13T10:10:44.657Z,97723.91
2022-09-13T10:13:20.744Z,97735.28
2022-09-13T10:15:58.326Z,97741.69
2022-09-13T10:18:45.651Z,97728.19
2022-09-13T10:21:28.369Z,97717.09
2022-09-13T10:24:22.435Z,97699.34
2022-09-13T10:26:51.710Z,97691.91
2022-09-13T10:29:20.801Z,97690.06
2022-09-13T10:31:53.819Z,97681.09
2022-09-13T10:34:26.861Z,97675.50
2022-09-13T10:37:02.483Z,97671.81
2022-09-13T10:39:37.377Z,97695.69
2022-09-13T10:42:09.620Z,97685.34
2022-09-13T10:44:45.772Z,97699.38
2022-09-13T10:47:21.295Z,97697.78
2022-09-13T10:49:53.879Z,97694.06
2022-09-13T10:52:29.630Z,97681.38
2022-09-13T10:55:36.070Z,97680.34
2022-09-13T10:58:20.395Z,97673.72
2022-09-13T11:01:41.535Z,97657.31
2022-09-13T11:05:06.514Z,97655.47
2022-09-13T11:07:52.121Z,97650.69
2022-09-13T11:10:34.904Z,97660.56
2022-09-13T11:13:15.893Z,97653.69
2022-09-13T11:15:57.891Z,97651.34
2022-09-13T11:19:08.401Z,97652.19
2022-09-13T11:21:59.656Z,97658.84
2022-09-13T11:24:56.971Z,97659.13
2022-09-13T11:27:42.691Z,97656.53
2022-09-13T11:30:18.773Z,97648.34
2022-09-13T11:33:21.013Z,97641.22
2022-09-13T11:36:12.433Z,97636.72
2022-09-13T11:39:03.777Z,97635.16
2022-09-13T11:41:50.121Z,97638.91
2022-09-13T11:44:46.999Z,97631.00
2022-09-13T11:47:28.865Z,97629.72
2022-09-13T11:50:21.568Z,97629.25
2022-09-13T11:53:09.822Z,97624.53
2022-09-13T11:55:48.882Z,97617.91
2022-09-13T11:58:25.744Z,97614.22
2022-09-13T12:01:01.517Z,97628.09
2022-09-13T12:03:41.654Z,97637.91
2022-09-13T12:06:19.993Z,97641.94
2022-09-13T12:08:52.689Z,97631.06
2022-09-13T12:11:29.470Z,97627.38
2022-09-13T12:14:03.731Z,97622.59
2022-09-13T12:16:40.628Z,97613.88
2022-09-13T12:19:18.603Z,97608.56
2022-09-13T12:21:50.118Z,97605.09
2022-09-13T12:24:26.601Z,97611.25
2022-09-13T12:27:02.138Z,97598.22
2022-09-13T12:29:38.287Z,97596.13
2022-09-13T12:32:11.944Z,97595.31
2022-09-13T12:34:49.958Z,97588.41
2022-09-13T12:37:59.553Z,97587.88
2022-09-13T12:40:53.736Z,97589.50
2022-09-13T12:43:50.575Z,97587.91
2022-09-13T12:46:59.091Z,97575.41
2022-09-13T12:49:47.258Z,97571.41
2022-09-13T12:52:39.274Z,97574.06
2022-09-13T12:55:49.492Z,97565.28
2022-09-13T12:58:53.348Z,97560.47
2022-09-13T13:01:25.793Z,97561.81
2022-09-13T13:04:01.195Z,97563.91
2022-09-13T13:06:36.987Z,97560.47
2022-09-13T13:09:26.583Z,97560.72
2022-09-13T13:11:59.726Z,97558.56
2022-09-13T13:14:45.947Z,97562.56
2022-09-13T13:17:43.248Z,97560.44
2022-09-13T13:21:07.353Z,97557.50
2022-09-13T13:23:41.143Z,97554.84
2022-09-13T13:26:14.117Z,97553.75
2022-09-13T13:29:18.262Z,97554.56
2022-09-13T13:32:18.256Z,97544.72
2022-09-13T13:34:50.951Z,97550.84
2022-09-13T13:37:37.083Z,97542.34
2022-09-13T13:40:27.006Z,97543.91
2022-09-13T13:43:32.870Z,97535.66
2022-09-13T13:46:32.157Z,97540.44
2022-09-13T13:49:46.318Z,97540.72
2022-09-13T13:52:41.361Z,97531.38
2022-09-13T13:55:42.578Z,97527.13
2022-09-13T13:58:46.165Z,97518.03
2022-09-13T14:01:22.519Z,97513.78
2022-09-13T14:04:58.377Z,97512.41
2022-09-13T14:10:52.841Z,97496.69
2022-09-13T14:13:54.306Z,97495.63
2022-09-13T14:16:44.108Z,97490.31
2022-09-13T14:19:25.717Z,97492.97
2022-09-13T14:22:14.443Z,97482.81
2022-09-13T14:24:46.452Z,97478.59
2022-09-13T14:27:37.703Z,97477.78
2022-09-13T14:30:22.211Z,97473.81
2022-09-13T14:32:53.967Z,97470.59
2022-09-13T14:35:33.799Z,97469.53
2022-09-13T14:38:19.710Z,97471.16
2022-09-13T14:40:52.493Z,97463.16
2022-09-13T14:43:25.949Z,97463.72
2022-09-13T14:46:05.360Z,97462.09
2022-09-13T14:48:42.298Z,97462.63
2022-09-13T14:51:21.629Z,97462.63
2022-09-13T14:53:55.382Z,97460.75
2022-09-13T14:56:36.039Z,97461.00
2022-09-13T14:59:15.764Z,97453.00
2022-09-13T15:01:44.261Z,97450.09
2022-09-13T15:04:13.036Z,97437.00
2022-09-13T15:06:44.479Z,97447.13
2022-09-13T15:09:28.418Z,97448.69
2022-09-13T15:12:01.203Z,97447.13
2022-09-13T15:14:34.869Z,97441.22
2022-09-13T15:17:11.043Z,97447.34
2022-09-13T15:19:44.564Z,97442.84
2022-09-13T15:22:24.566Z,97440.16
2022-09-13T15:24:56.677Z,97442.84
2022-09-13T15:27:28.960Z,97446.81
2022-09-13T15:30:03.589Z,97444.44
2022-09-13T15:32:37.866Z,97440.19
2022-09-13T15:35:23.467Z,97441.25
2022-09-13T15:38:02.474Z,97436.47
2022-09-13T15:40:43.978Z,97440.19
2022-09-13T15:43:12.600Z,97449.25
2022-09-13T15:45:42.510Z,97440.44
2022-09-13T15:48:25.648Z,97432.47
2022-09-13T15:51:10.436Z,97437.00
2022-09-13T15:53:41.214Z,97441.25
2022-09-13T15:56:14.095Z,97447.13
2022-09-13T15:58:43.029Z,97449.00
2022-09-13T16:01:16.608Z,97448.19
2022-09-13T16:03:45.362Z,97445.81
2022-09-13T16:06:13.931Z,97451.94
2022-09-13T16:08:42.486Z,97445.81
2022-09-13T16:11:11.014Z,97449.53
2022-09-13T16:13:39.571Z,97446.09
2022-09-13T16:16:12.502Z,97434.91
2022-09-13T16:18:43.471Z,97429.59
2022-09-13T16:21:12.373Z,97437.06
2022-09-13T16:23:40.943Z,97434.16
2022-09-13T16:26:09.512Z,97432.03
2022-09-13T16:28:38.665Z,97438.72
2022-09-13T16:31:08.470Z,97433.66
2022-09-13T16:33:37.019Z,97428.59
2022-09-13T16:36:07.523Z,97432.34
2022-09-13T16:38:36.676Z,97434.72
2022-09-13T16:41:06.614Z,97434.47
2022-09-13T16:43:36.261Z,97433.97
2022-09-13T16:46:09.215Z,97435.31
2022-09-13T16:48:38.878Z,97428.38
2022-09-13T16:51:11.705Z,97432.41
2022-09-13T16:53:43.711Z,97431.84
2022-09-13T16:56:16.941Z,97429.75
2022-09-13T16:58:47.770Z,97425.78
2022-09-13T17:01:20.204Z,97424.47
2022-09-13T17:03:51.750Z,97421.25
2022-09-13T17:06:26.787Z,97419.41
2022-09-13T17:09:00.773Z,97429.78
2022-09-13T17:11:32.438Z,97430.34
2022-09-13T17:14:04.551Z,97435.41
2022-09-13T17:16:39.048Z,97437.81
2022-09-13T17:19:13.109Z,97432.00
2022-09-13T17:21:43.503Z,97428.00
2022-09-13T17:24:13.787Z,97436.25
2022-09-13T17:26:43.118Z,97432.28
2022-09-13T17:29:14.280Z,97425.91
2022-09-13T17:31:43.899Z,97427.50
2022-09-13T17:34:13.479Z,97433.38
2022-09-13T17:36:47.224Z,97425.13
2022-09-13T17:39:19.887Z,97425.66
2022-09-13T17:41:50.245Z,97425.16
2022-09-13T17:44:19.538Z,97417.69
2022-09-13T17:46:48.090Z,97434.19
2022-09-13T17:49:16.640Z,97439.22
2022-09-13T17:51:47.523Z,97437.38
2022-09-13T17:54:16.828Z,97435.78
2022-09-13T17:56:46.779Z,97430.72
2022-09-13T17:59:19.346Z,97434.72
2022-09-13T18:01:50.930Z,97430.50
2022-09-13T18:04:21.899Z,97438.19
2022-09-13T18:06:52.612Z,97437.94
2022-09-13T18:09:22.133Z,97443.50
2022-09-13T18:11:50.692Z,97438.72
2022-09-13T18:14:20.718Z,97436.09
2022-09-13T18:16:55.704Z,97435.28
2022-09-13T18:19:44.216Z,97441.91
2022-09-13T18:22:15.436Z,97454.97
2022-09-13T18:24:43.976Z,97448.84
2022-09-13T18:27:12.571Z,97449.38
2022-09-13T18:29:40.997Z,97457.59
2022-09-13T18:32:10.088Z,97456.28
2022-09-13T18:34:38.956Z,97460.25
2022-09-13T18:37:07.394Z,97461.34
2022-09-13T18:39:37.311Z,97457.88
2022-09-13T18:42:06.784Z,97451.25
2022-09-13T18:44:35.242Z,97452.53
2022-09-13T18:47:05.558Z,97448.56
2022-09-13T18:49:34.215Z,97453.34
2022-09-13T18:52:03.082Z,97458.13
2022-09-13T18:54:33.180Z,97456.53
2022-09-13T18:57:03.489Z,97453.34
2022-09-13T18:59:33.341Z,97455.47
2022-09-13T19:02:02.245Z,97459.19
2022-09-13T19:04:32.101Z,97470.34
2022-09-13T19:07:02.574Z,97477.50
2022-09-13T19:09:31.056Z,97471.69
2022-09-13T19:11:59.728Z,97474.56
2022-09-13T19:14:33.330Z,97478.28
2022-09-13T19:17:03.209Z,97482.03
2022-09-13T19:19:32.380Z,97482.53
2022-09-13T19:22:00.940Z,97480.91
2022-09-13T19:24:29.518Z,97489.13
2022-09-13T19:26:58.363Z,97492.84
2022-09-13T19:29:28.291Z,97484.34
2022-09-13T19:31:57.478Z,97485.41
2022-09-13T19:34:26.164Z,97481.94
2022-09-13T19:36:58.142Z,97471.84
2022-09-13T19:39:29.827Z,97477.97
2022-09-13T19:42:00.966Z,97473.19
2022-09-13T19:44:31.071Z,97477.97
2022-09-13T19:49:49.813Z,97476.34
2022-09-13T19:52:18.716Z,97469.69
2022-09-13T19:54:49.420Z,97473.41
2022-09-13T19:57:18.109Z,97470.75
2022-09-13T19:59:48.377Z,97462.25
2022-09-13T20:02:17.371Z,97458.81
2022-09-13T20:04:49.272Z,97458.00
2022-09-13T20:07:18.040Z,97447.38
2022-09-13T20:09:48.765Z,97447.38
2022-09-13T20:12:17.582Z,97447.91
2022-09-13T20:14:48.082Z,97473.63
2022-09-13T20:17:16.895Z,97459.28
2022-09-13T20:19:49.900Z,97456.38
2022-09-13T20:22:19.308Z,97459.81
2022-09-13T20:24:48.758Z,97451.88
2022-09-13T20:27:17.359Z,97438.31
2022-09-13T20:29:47.383Z,97439.66
2022-09-13T20:32:16.223Z,97437.00
2022-09-13T20:34:46.668Z,97435.91
2022-09-13T20:37:15.328Z,97437.75
2022-09-13T20:39:45.574Z,97439.91
2022-09-13T20:42:15.634Z,97437.25
2022-09-13T20:44:46.020Z,97436.72
2022-09-13T20:47:16.343Z,97424.50
2022-09-13T20:49:45.037Z,97416.53
2022-09-13T20:52:14.440Z,97411.47
2022-09-13T20:54:43.245Z,97405.91
2022-09-13T20:57:11.823Z,97402.72
2022-09-13T20:59:43.016Z,97404.03
2022-09-13T21:02:11.922Z,97402.44
2022-09-13T21:04:41.902Z,97393.94
2022-09-13T21:07:30.447Z,97379.88
2022-09-13T21:10:01.623Z,97387.84
2022-09-13T21:12:31.336Z,97392.88
2022-09-13T21:15:02.797Z,97393.13
2022-09-13T21:17:31.455Z,97388.88
2022-09-13T21:20:01.457Z,97390.47
2022-09-13T21:22:33.078Z,97383.56
2022-09-13T21:25:01.704Z,97381.19
2022-09-13T21:27:33.445Z,97380.38
2022-09-13T21:30:02.952Z,97376.94
2022-09-13T21:32:32.196Z,97376.94
2022-09-13T21:35:02.090Z,97377.22
2022-09-13T21:37:30.721Z,97379.31
2022-09-13T21:39:59.386Z,97373.19
2022-09-13T21:42:28.982Z,97373.19
2022-09-13T21:44:58.390Z,97370.81
2022-09-13T21:47:27.018Z,97368.41
2022-09-13T21:49:55.488Z,97367.63
2022-09-13T21:52:25.435Z,97364.44
2022-09-13T21:54:55.413Z,97370.78
2022-09-13T21:57:25.128Z,97368.63
2022-09-13T21:59:53.595Z,97361.72
2022-09-13T22:02:24.843Z,97361.72
2022-09-13T22:04:54.086Z,97370.75
2022-09-13T22:07:24.372Z,97369.69
2022-09-13T22:09:52.978Z,97364.66
2022-09-13T22:12:23.435Z,97354.03
2022-09-13T22:14:52.314Z,97341.59
2022-09-13T22:17:20.737Z,97332.03
2022-09-13T22:19:49.119Z,97334.13
2022-09-13T22:22:20.653Z,97334.13
2022-09-13T22:24:50.683Z,97330.16
2022-09-13T22:27:19.153Z,97326.16
2022-09-13T22:29:48.361Z,97337.81
2022-09-13T22:32:20.315Z,97345.78
2022-09-13T22:34:52.057Z,97339.69
2022-09-13T22:37:20.554Z,97340.47
2022-09-13T22:39:50.852Z,97336.25
2022-09-13T22:42:19.475Z,97345.25
2022-09-13T22:44:48.078Z,97350.00
2022-09-13T22:47:16.747Z,97343.94
2022-09-13T22:49:45.783Z,97345.78
2022-09-13T22:52:14.271Z,97343.94
2022-09-13T22:54:44.288Z,97341.53
2022-09-13T22:57:14.148Z,97347.88
2022-09-13T22:59:44.088Z,97339.91
2022-09-13T23:02:12.818Z,97329.31
2022-09-13T23:04:41.392Z,97325.88
2022-09-13T23:07:09.861Z,97327.75
2022-09-13T23:09:38.319Z,97330.38
2022-09-13T23:12:08.374Z,97331.44
2022-09-13T23:14:38.807Z,97331.44
2022-09-13T23:17:07.357Z,97341.00
2022-09-13T23:19:36.989Z,97339.63
2022-09-13T23:22:06.889Z,97346.78
2022-09-13T23:24:36.143Z,97341.47
2022-09-13T23:27:04.706Z,97346.00
2022-09-13T23:29:33.673Z,97365.88
2022-09-13T23:32:04.841Z,97391.28
2022-09-13T23:34:33.357Z,97397.91
2022-09-13T23:37:01.882Z,97401.34
2022-09-13T23:39:31.985Z,97402.97
2022-09-13T23:42:00.522Z,97393.69
2022-09-13T23:44:29.758Z,97400.84
2022-09-13T23:46:58.235Z,97413.06
2022-09-13T23:49:28.114Z,97419.41
2022-09-13T23:51:57.116Z,97430.00
2022-09-13T23:54:25.543Z,97431.53
2022-09-13T23:56:54.575Z,97432.34
2022-09-13T23:59:23.057Z,97409.03
